SAAR

Islas Malvinas Airport

Rosario, Argentina
TAF SAAR 210500Z 2106/2206 18005KT 5000 BR NSC TX27/2118Z TN18/2111Z BECMG 2107/2109 0500 FG SCT007 BECMG 2112/2114 14005KT CAVOK
Issued Valid From Valid To
Apr-21 @ 05:00 UTC
(5 hours ago)
Apr-21 @ 06:00 UTC
(4 hours ago)
Apr-22 @ 06:00 UTC
(in 20 hours)
Expired Click to View Apr-21 @ 06:00 to Apr-21 @ 07:00
TAF SAAR 210500Z 2106/2206 18005KT 5000 BR NSC TX27/2118Z TN18/2111Z
Wind Visibility Clouds Conditions
180° at 5 knots 5,005 meters
  • No significant clouds
  • Mist
Becoming Apr-21 @ 07:00 to Apr-21 @ 12:00
BECMG 2107/2109 0500 FG SCT007
Wind Visibility Clouds Conditions
180° at 5 knots 499 meters
  • Scattered at 700' AGL
  • Fog
Becoming Apr-21 @ 12:00 to Apr-22 @ 06:00
BECMG 2112/2114 14005KT CAVOK
Wind Visibility Clouds Conditions
140° at 5 knots 10,000+ meters
  • No significant clouds
TAF SAAR 210500Z 2106/2206 18005KT 5000 BR NSC TX27/2118Z TN18/2111Z BECMG 2107/2109 0500 FG SCT007 BECMG 2112/2114 14005KT CAVOK
Issued Apr-21 @ 05:00 UTC
(5 hours ago)
Valid From Apr-21 @ 06:00 UTC
(4 hours ago)
Valid To Apr-22 @ 06:00 UTC
(in 20 hours)
Apr-21 @ 06:00 - Apr-21 @ 07:00
Wind Visibility
180° at 5 knots 5,005 meters
Clouds
  • No significant clouds
Conditions
  • Mist
Becoming Apr-21 @ 07:00 - Apr-21 @ 12:00
Wind Visibility
180° at 5 knots 499 meters
Clouds
  • Scattered at 700' AGL
Conditions
  • Fog
Becoming Apr-21 @ 12:00 - Apr-22 @ 06:00
Wind Visibility
140° at 5 knots 10,000+ meters
Clouds
  • No significant clouds
Conditions